Aspinwall, Pennsylvania
Current Conditions -  °F | °C
As of 6:53 AM on Sunday 21 Dec 2014 (Local Time) from KAGC Reporting Station
Overcast Overcast  
Wind Chill: 28°   Ceiling: 5000
Heat Index: 28°   Visibility: 9mi
Dew Point: 18°   Wind: 0mph
Humidity: 66%   Direction: NA
Pressure: 30.28"   Gusts: NA
Location:  40.5049°N, 79.9132°W
Report Text: KAGC 211153Z 00000KT 9SM OVC050 M02/M08 A3028 RMK AO2 SLP275 T10221078 11022 21022 53007
Loading
Personal Weather Stations






























Interactive Weather Map New forecast layout! Learn more

10-Day Weather Forecast

Advertisements
Track Severe Weather on mobile